sensor_id;sensor_type;location;lat;lon;timestamp;pressure;altitude;pressure_sealevel;temperature;humidity
75617;BME280;64200;55.426;37.758;2024-03-08T00:04:34;99332.97;;;0.75;43.24
75617;BME280;64200;55.426;37.758;2024-03-08T00:09:35;99337.72;;;0.71;44.54
75617;BME280;64200;55.426;37.758;2024-03-08T00:14:36;99316.72;;;0.54;44.02
75617;BME280;64200;55.426;37.758;2024-03-08T00:19:37;99308.16;;;0.48;44.11
75617;BME280;64200;55.426;37.758;2024-03-08T00:24:39;99312.47;;;0.45;44.32
75617;BME280;64200;55.426;37.758;2024-03-08T00:29:40;99307.50;;;0.29;43.75
75617;BME280;64200;55.426;37.758;2024-03-08T00:34:40;99296.22;;;0.20;44.98
75617;BME280;64200;55.426;37.758;2024-03-08T00:39:41;99299.75;;;0.21;45.04
75617;BME280;64200;55.426;37.758;2024-03-08T00:44:42;99298.22;;;0.16;45.03
75617;BME280;64200;55.426;37.758;2024-03-08T00:49:42;99296.72;;;0.08;44.94
75617;BME280;64200;55.426;37.758;2024-03-08T00:54:43;99292.81;;;0.05;45.75
75617;BME280;64200;55.426;37.758;2024-03-08T00:59:43;99283.81;;;0.01;45.57
75617;BME280;64200;55.426;37.758;2024-03-08T01:04:45;99285.06;;;-0.07;45.64
75617;BME280;64200;55.426;37.758;2024-03-08T01:09:47;99281.56;;;-0.11;46.24
75617;BME280;64200;55.426;37.758;2024-03-08T01:14:47;99265.97;;;-0.22;46.23
75617;BME280;64200;55.426;37.758;2024-03-08T01:19:48;99259.72;;;-0.22;45.75
75617;BME280;64200;55.426;37.758;2024-03-08T01:24:48;99250.25;;;-0.14;46.51
75617;BME280;64200;55.426;37.758;2024-03-08T01:29:49;99249.00;;;-0.02;46.09
75617;BME280;64200;55.426;37.758;2024-03-08T01:34:49;99224.09;;;-0.22;46.54
75617;BME280;64200;55.426;37.758;2024-03-08T01:39:50;99251.41;;;-0.11;46.71
75617;BME280;64200;55.426;37.758;2024-03-08T01:44:50;99245.19;;;-0.15;45.88
75617;BME280;64200;55.426;37.758;2024-03-08T01:49:52;99249.44;;;-0.07;46.17
75617;BME280;64200;55.426;37.758;2024-03-08T01:54:53;99231.78;;;-0.06;46.61
75617;BME280;64200;55.426;37.758;2024-03-08T01:59:53;99237.63;;;-0.01;46.82
75617;BME280;64200;55.426;37.758;2024-03-08T02:04:56;99231.38;;;-0.01;46.30
75617;BME280;64200;55.426;37.758;2024-03-08T02:09:56;99228.63;;;-0.01;46.13
75617;BME280;64200;55.426;37.758;2024-03-08T02:14:57;99211.34;;;0.02;46.08
75617;BME280;64200;55.426;37.758;2024-03-08T02:19:57;99217.75;;;-0.15;46.20
75617;BME280;64200;55.426;37.758;2024-03-08T02:25:02;99220.50;;;-0.15;46.17
75617;BME280;64200;55.426;37.758;2024-03-08T02:30:03;99218.25;;;-0.28;46.42
75617;BME280;64200;55.426;37.758;2024-03-08T02:35:05;99213.22;;;-0.37;46.70
75617;BME280;64200;55.426;37.758;2024-03-08T02:40:06;99208.59;;;-0.50;47.26
75617;BME280;64200;55.426;37.758;2024-03-08T02:45:07;99194.38;;;-0.87;47.57
75617;BME280;64200;55.426;37.758;2024-03-08T02:50:10;99198.66;;;-0.90;47.69
75617;BME280;64200;55.426;37.758;2024-03-08T02:55:12;99188.59;;;-1.07;47.86
75617;BME280;64200;55.426;37.758;2024-03-08T03:00:17;99193.34;;;-1.22;48.02
75617;BME280;64200;55.426;37.758;2024-03-08T03:05:20;99187.84;;;-1.15;47.83
75617;BME280;64200;55.426;37.758;2024-03-08T03:10:21;99187.09;;;-1.22;48.63
75617;BME280;64200;55.426;37.758;2024-03-08T03:15:22;99187.09;;;-1.22;48.71
75617;BME280;64200;55.426;37.758;2024-03-08T03:20:22;99164.44;;;-1.27;48.62
75617;BME280;64200;55.426;37.758;2024-03-08T03:25:26;99159.75;;;-1.26;48.08
75617;BME280;64200;55.426;37.758;2024-03-08T03:30:33;99148.06;;;-1.30;49.04
75617;BME280;64200;55.426;37.758;2024-03-08T03:35:33;99146.44;;;-1.17;48.91
75617;BME280;64200;55.426;37.758;2024-03-08T03:40:34;99148.69;;;-1.04;48.71
75617;BME280;64200;55.426;37.758;2024-03-08T03:45:35;99149.63;;;-1.40;48.39
75617;BME280;64200;55.426;37.758;2024-03-08T03:50:35;99137.59;;;-1.53;49.33
75617;BME280;64200;55.426;37.758;2024-03-08T03:55:36;99139.59;;;-1.68;49.34
75617;BME280;64200;55.426;37.758;2024-03-08T04:00:38;99128.28;;;-1.74;49.59
75617;BME280;64200;55.426;37.758;2024-03-08T04:05:39;99122.06;;;-1.89;50.14
75617;BME280;64200;55.426;37.758;2024-03-08T04:10:40;99115.81;;;-1.86;50.06
75617;BME280;64200;55.426;37.758;2024-03-08T04:15:42;99116.22;;;-2.09;50.85
75617;BME280;64200;55.426;37.758;2024-03-08T04:20:44;99119.75;;;-2.08;50.82
75617;BME280;64200;55.426;37.758;2024-03-08T04:25:45;99108.06;;;-2.13;51.17
75617;BME280;64200;55.426;37.758;2024-03-08T04:30:46;99106.09;;;-2.12;51.45
75617;BME280;64200;55.426;37.758;2024-03-08T04:35:47;99105.25;;;-1.87;51.11
75617;BME280;64200;55.426;37.758;2024-03-08T04:40:49;99109.13;;;-1.74;50.66
75617;BME280;64200;55.426;37.758;2024-03-08T04:45:49;99113.00;;;-1.61;50.82
75617;BME280;64200;55.426;37.758;2024-03-08T04:50:50;99121.16;;;-1.46;50.24
75617;BME280;64200;55.426;37.758;2024-03-08T04:55:52;99120.03;;;-1.70;51.03
75617;BME280;64200;55.426;37.758;2024-03-08T05:00:52;99096.59;;;-1.64;51.13
75617;BME280;64200;55.426;37.758;2024-03-08T05:05:53;99116.81;;;-1.40;50.81
75617;BME280;64200;55.426;37.758;2024-03-08T05:10:53;99112.88;;;-1.32;50.95
75617;BME280;64200;55.426;37.758;2024-03-08T05:15:54;99105.53;;;-1.53;51.14
75617;BME280;64200;55.426;37.758;2024-03-08T05:20:58;99121.38;;;-1.15;51.42
75617;BME280;64200;55.426;37.758;2024-03-08T05:25:59;99105.06;;;-1.37;50.83
75617;BME280;64200;55.426;37.758;2024-03-08T05:30:59;99098.88;;;-1.52;51.64
75617;BME280;64200;55.426;37.758;2024-03-08T05:36:00;99101.97;;;-1.39;51.88
75617;BME280;64200;55.426;37.758;2024-03-08T05:41:02;99094.69;;;-0.97;51.34
75617;BME280;64200;55.426;37.758;2024-03-08T05:46:03;99084.56;;;-1.07;51.35
75617;BME280;64200;55.426;37.758;2024-03-08T05:51:04;99071.56;;;-0.89;51.90
75617;BME280;64200;55.426;37.758;2024-03-08T05:56:06;99064.72;;;-0.66;50.90
75617;BME280;64200;55.426;37.758;2024-03-08T06:01:06;99074.22;;;-0.78;50.60
75617;BME280;64200;55.426;37.758;2024-03-08T06:06:08;99080.53;;;-0.88;51.46
75617;BME280;64200;55.426;37.758;2024-03-08T06:11:09;99089.09;;;-0.82;51.66
75617;BME280;64200;55.426;37.758;2024-03-08T06:16:09;99083.69;;;-0.90;51.97
75617;BME280;64200;55.426;37.758;2024-03-08T06:21:10;99091.63;;;-1.06;52.50
75617;BME280;64200;55.426;37.758;2024-03-08T06:26:12;99087.13;;;-0.78;52.20
75617;BME280;64200;55.426;37.758;2024-03-08T06:31:13;99094.34;;;-0.54;52.69
75617;BME280;64200;55.426;37.758;2024-03-08T06:36:18;99088.19;;;-0.65;51.86
75617;BME280;64200;55.426;37.758;2024-03-08T06:41:19;99086.13;;;-0.54;52.53
75617;BME280;64200;55.426;37.758;2024-03-08T06:46:22;99087.13;;;-0.33;52.08
75617;BME280;64200;55.426;37.758;2024-03-08T06:51:23;99084.25;;;-0.19;52.22
75617;BME280;64200;55.426;37.758;2024-03-08T06:56:24;99083.31;;;-0.05;51.78
75617;BME280;64200;55.426;37.758;2024-03-08T07:01:25;99086.38;;;0.39;51.56
75617;BME280;64200;55.426;37.758;2024-03-08T07:06:26;99085.78;;;0.24;51.61
75617;BME280;64200;55.426;37.758;2024-03-08T07:11:26;99088.75;;;0.03;51.45
75617;BME280;64200;55.426;37.758;2024-03-08T07:16:27;99087.50;;;0.11;51.69
75617;BME280;64200;55.426;37.758;2024-03-08T07:21:28;99089.97;;;0.32;52.35
75617;BME280;64200;55.426;37.758;2024-03-08T07:26:29;99088.31;;;0.73;51.18
75617;BME280;64200;55.426;37.758;2024-03-08T07:31:30;99081.09;;;0.83;50.52
75617;BME280;64200;55.426;37.758;2024-03-08T07:36:56;99084.47;;;0.94;50.70
75617;BME280;64200;55.426;37.758;2024-03-08T07:41:56;99080.06;;;1.00;49.45
75617;BME280;64200;55.426;37.758;2024-03-08T07:46:57;99066.66;;;1.06;49.94
75617;BME280;64200;55.426;37.758;2024-03-08T07:51:58;99086.97;;;1.36;50.75
75617;BME280;64200;55.426;37.758;2024-03-08T07:56:59;99075.44;;;1.21;49.23
75617;BME280;64200;55.426;37.758;2024-03-08T08:01:59;99072.06;;;1.37;49.58
75617;BME280;64200;55.426;37.758;2024-03-08T08:07:00;99080.53;;;1.70;49.00
75617;BME280;64200;55.426;37.758;2024-03-08T08:12:01;99075.81;;;1.94;48.98
75617;BME280;64200;55.426;37.758;2024-03-08T08:17:03;99062.31;;;2.00;48.63
75617;BME280;64200;55.426;37.758;2024-03-08T08:22:04;99061.84;;;2.05;48.59
75617;BME280;64200;55.426;37.758;2024-03-08T08:27:05;99053.56;;;2.25;47.80
75617;BME280;64200;55.426;37.758;2024-03-08T08:32:05;99054.41;;;2.22;48.07
75617;BME280;64200;55.426;37.758;2024-03-08T08:37:06;99057.81;;;2.86;47.72
75617;BME280;64200;55.426;37.758;2024-03-08T08:42:08;99053.34;;;3.25;46.84
75617;BME280;64200;55.426;37.758;2024-03-08T08:47:09;99063.00;;;3.17;46.28
75617;BME280;64200;55.426;37.758;2024-03-08T08:52:10;99065.38;;;2.98;46.84
75617;BME280;64200;55.426;37.758;2024-03-08T08:57:10;99066.09;;;3.03;45.96
75617;BME280;64200;55.426;37.758;2024-03-08T09:02:11;99063.59;;;3.25;45.79
75617;BME280;64200;55.426;37.758;2024-03-08T09:07:11;99064.47;;;3.22;46.21
75617;BME280;64200;55.426;37.758;2024-03-08T09:12:13;99048.63;;;3.88;46.08
75617;BME280;64200;55.426;37.758;2024-03-08T09:17:15;99056.56;;;4.15;44.87
75617;BME280;64200;55.426;37.758;2024-03-08T09:22:20;99050.69;;;4.55;44.04
75617;BME280;64200;55.426;37.758;2024-03-08T09:27:20;99046.44;;;4.25;44.15
75617;BME280;64200;55.426;37.758;2024-03-08T09:32:21;99057.03;;;4.95;44.44
75617;BME280;64200;55.426;37.758;2024-03-08T09:37:23;99051.84;;;5.09;42.40
75617;BME280;64200;55.426;37.758;2024-03-08T09:42:23;99040.19;;;5.40;43.19
75617;BME280;64200;55.426;37.758;2024-03-08T09:47:25;99050.88;;;5.51;41.68
75617;BME280;64200;55.426;37.758;2024-03-08T09:52:29;99046.47;;;5.41;41.93
75617;BME280;64200;55.426;37.758;2024-03-08T09:57:33;99046.34;;;5.57;42.34
75617;BME280;64200;55.426;37.758;2024-03-08T10:02:35;99048.59;;;5.37;42.39
75617;BME280;64200;55.426;37.758;2024-03-08T10:07:36;99042.88;;;5.18;42.24
75617;BME280;64200;55.426;37.758;2024-03-08T10:12:36;99037.88;;;5.00;42.22
75617;BME280;64200;55.426;37.758;2024-03-08T10:17:37;99032.72;;;5.02;43.08
75617;BME280;64200;55.426;37.758;2024-03-08T10:22:37;99032.44;;;5.22;42.13
75617;BME280;64200;55.426;37.758;2024-03-08T10:27:41;99035.13;;;4.74;42.97
75617;BME280;64200;55.426;37.758;2024-03-08T10:32:42;99032.25;;;4.52;42.93
75617;BME280;64200;55.426;37.758;2024-03-08T10:42:54;99024.34;;;5.41;43.55
75617;BME280;64200;55.426;37.758;2024-03-08T10:53:13;99018.75;;;5.32;42.79
75617;BME280;64200;55.426;37.758;2024-03-08T10:58:15;99026.59;;;5.07;42.74
75617;BME280;64200;55.426;37.758;2024-03-08T11:08:43;99025.84;;;5.55;42.59
75617;BME280;64200;55.426;37.758;2024-03-08T11:13:44;99009.28;;;4.81;44.01
75617;BME280;64200;55.426;37.758;2024-03-08T11:18:47;99023.94;;;4.39;44.42
75617;BME280;64200;55.426;37.758;2024-03-08T11:24:00;99025.59;;;4.50;44.42
75617;BME280;64200;55.426;37.758;2024-03-08T11:34:35;99019.53;;;4.00;45.97
75617;BME280;64200;55.426;37.758;2024-03-08T11:39:36;99025.53;;;3.82;46.30
75617;BME280;64200;55.426;37.758;2024-03-08T11:44:37;99023.00;;;4.17;45.93
75617;BME280;64200;55.426;37.758;2024-03-08T11:49:38;99024.00;;;4.23;45.71
75617;BME280;64200;55.426;37.758;2024-03-08T11:54:54;99027.41;;;4.14;45.38
75617;BME280;64200;55.426;37.758;2024-03-08T11:59:57;99029.63;;;4.19;46.35
75617;BME280;64200;55.426;37.758;2024-03-08T12:04:59;99024.06;;;4.62;45.63
75617;BME280;64200;55.426;37.758;2024-03-08T12:10:17;99030.69;;;4.51;45.36
75617;BME280;64200;55.426;37.758;2024-03-08T12:15:20;99023.09;;;4.68;45.37
75617;BME280;64200;55.426;37.758;2024-03-08T12:20:22;99022.16;;;4.33;45.87
75617;BME280;64200;55.426;37.758;2024-03-08T12:25:33;99024.38;;;4.38;45.60
75617;BME280;64200;55.426;37.758;2024-03-08T12:30:45;99030.25;;;4.66;45.74
75617;BME280;64200;55.426;37.758;2024-03-08T12:35:51;99017.97;;;4.54;45.70
75617;BME280;64200;55.426;37.758;2024-03-08T12:40:55;99016.34;;;4.69;45.15
75617;BME280;64200;55.426;37.758;2024-03-08T12:45:57;99016.78;;;4.93;45.17
75617;BME280;64200;55.426;37.758;2024-03-08T12:50:58;99014.25;;;4.86;45.16
75617;BME280;64200;55.426;37.758;2024-03-08T12:55:58;99016.13;;;4.89;45.47
75617;BME280;64200;55.426;37.758;2024-03-08T13:00:59;99015.34;;;4.63;45.89
75617;BME280;64200;55.426;37.758;2024-03-08T13:06:00;99016.34;;;4.56;46.80
75617;BME280;64200;55.426;37.758;2024-03-08T13:11:01;99025.75;;;4.98;45.43
75617;BME280;64200;55.426;37.758;2024-03-08T13:16:03;99024.97;;;4.71;45.72
75617;BME280;64200;55.426;37.758;2024-03-08T13:21:08;99036.00;;;4.46;45.92
75617;BME280;64200;55.426;37.758;2024-03-08T13:26:11;99038.97;;;4.51;46.02
75617;BME280;64200;55.426;37.758;2024-03-08T13:31:15;99024.72;;;4.53;46.46
75617;BME280;64200;55.426;37.758;2024-03-08T13:36:15;99031.16;;;4.63;46.00
75617;BME280;64200;55.426;37.758;2024-03-08T13:41:16;99046.88;;;4.91;45.54
75617;BME280;64200;55.426;37.758;2024-03-08T13:46:17;99040.09;;;4.92;45.65
75617;BME280;64200;55.426;37.758;2024-03-08T13:51:18;99044.31;;;4.84;45.89
75617;BME280;64200;55.426;37.758;2024-03-08T13:56:20;99038.44;;;4.82;45.33
75617;BME280;64200;55.426;37.758;2024-03-08T14:01:21;99043.41;;;4.62;45.99
75617;BME280;64200;55.426;37.758;2024-03-08T14:06:22;99034.56;;;4.54;45.89
75617;BME280;64200;55.426;37.758;2024-03-08T14:11:25;99025.06;;;4.55;46.23
75617;BME280;64200;55.426;37.758;2024-03-08T14:16:27;99016.50;;;4.24;46.80
75617;BME280;64200;55.426;37.758;2024-03-08T14:21:28;99021.19;;;3.97;46.66
75617;BME280;64200;55.426;37.758;2024-03-08T14:26:28;99005.50;;;3.65;47.49
75617;BME280;64200;55.426;37.758;2024-03-08T14:31:29;99023.41;;;3.57;47.72
75617;BME280;64200;55.426;37.758;2024-03-08T14:36:30;99039.97;;;3.73;47.89
75617;BME280;64200;55.426;37.758;2024-03-08T14:41:30;99040.28;;;3.75;47.76
75617;BME280;64200;55.426;37.758;2024-03-08T14:46:31;99047.13;;;4.00;47.17
75617;BME280;64200;55.426;37.758;2024-03-08T14:51:31;99051.44;;;4.01;47.48
75617;BME280;64200;55.426;37.758;2024-03-08T14:56:33;99048.91;;;4.07;47.34
75617;BME280;64200;55.426;37.758;2024-03-08T15:01:35;99058.81;;;4.04;47.34
75617;BME280;64200;55.426;37.758;2024-03-08T15:06:39;99052.91;;;3.89;47.64
75617;BME280;64200;55.426;37.758;2024-03-08T15:11:41;99057.78;;;3.68;47.48
75617;BME280;64200;55.426;37.758;2024-03-08T15:16:43;99062.50;;;3.84;48.52
75617;BME280;64200;55.426;37.758;2024-03-08T15:21:46;99052.72;;;3.67;47.95
75617;BME280;64200;55.426;37.758;2024-03-08T15:26:48;99056.34;;;3.64;48.61
75617;BME280;64200;55.426;37.758;2024-03-08T15:31:51;99053.41;;;3.55;48.62
75617;BME280;64200;55.426;37.758;2024-03-08T15:36:54;99047.66;;;3.32;48.72
75617;BME280;64200;55.426;37.758;2024-03-08T15:41:54;99049.06;;;3.41;49.14
75617;BME280;64200;55.426;37.758;2024-03-08T15:46:55;99045.44;;;3.44;48.73
75617;BME280;64200;55.426;37.758;2024-03-08T15:51:56;99057.56;;;3.46;48.13
75617;BME280;64200;55.426;37.758;2024-03-08T15:56:56;99050.66;;;3.55;48.56
75617;BME280;64200;55.426;37.758;2024-03-08T16:01:58;99066.06;;;3.68;48.60
75617;BME280;64200;55.426;37.758;2024-03-08T16:06:58;99066.34;;;3.58;48.62
75617;BME280;64200;55.426;37.758;2024-03-08T16:12:00;99057.16;;;3.48;48.41
75617;BME280;64200;55.426;37.758;2024-03-08T16:17:01;99062.66;;;3.48;48.48
75617;BME280;64200;55.426;37.758;2024-03-08T16:22:01;99072.72;;;3.71;48.41
75617;BME280;64200;55.426;37.758;2024-03-08T16:27:03;99068.16;;;3.64;48.94
75617;BME280;64200;55.426;37.758;2024-03-08T16:32:04;99070.81;;;3.68;49.17
75617;BME280;64200;55.426;37.758;2024-03-08T16:37:06;99070.81;;;3.68;49.35
75617;BME280;64200;55.426;37.758;2024-03-08T16:42:06;99071.59;;;3.68;49.30
75617;BME280;64200;55.426;37.758;2024-03-08T16:47:08;99066.69;;;3.43;50.27
75617;BME280;64200;55.426;37.758;2024-03-08T16:52:08;99063.59;;;3.41;49.89
75617;BME280;64200;55.426;37.758;2024-03-08T16:57:09;99070.06;;;3.34;50.18
75617;BME280;64200;55.426;37.758;2024-03-08T17:02:14;99059.38;;;3.04;50.97
75617;BME280;64200;55.426;37.758;2024-03-08T17:07:14;99069.78;;;2.96;50.56
75617;BME280;64200;55.426;37.758;2024-03-08T17:12:15;99070.78;;;2.86;50.81
75617;BME280;64200;55.426;37.758;2024-03-08T17:17:19;99067.25;;;2.85;51.01
75617;BME280;64200;55.426;37.758;2024-03-08T17:22:20;99059.09;;;2.81;50.83
75617;BME280;64200;55.426;37.758;2024-03-08T17:27:21;99065.28;;;2.86;51.28
75617;BME280;64200;55.426;37.758;2024-03-08T17:32:24;99065.97;;;2.90;51.14
75617;BME280;64200;55.426;37.758;2024-03-08T17:37:25;99061.88;;;3.14;51.09
75617;BME280;64200;55.426;37.758;2024-03-08T17:42:25;99062.41;;;3.26;50.53
75617;BME280;64200;55.426;37.758;2024-03-08T17:47:26;99061.03;;;3.17;50.63
75617;BME280;64200;55.426;37.758;2024-03-08T17:52:27;99064.81;;;3.07;51.27
75617;BME280;64200;55.426;37.758;2024-03-08T17:57:27;99064.69;;;3.11;51.31
75617;BME280;64200;55.426;37.758;2024-03-08T18:02:28;99055.66;;;3.10;51.16
75617;BME280;64200;55.426;37.758;2024-03-08T18:07:28;99048.16;;;2.94;50.78
75617;BME280;64200;55.426;37.758;2024-03-08T18:12:29;99057.72;;;2.90;51.00
75617;BME280;64200;55.426;37.758;2024-03-08T18:17:30;99050.97;;;2.74;51.24
75617;BME280;64200;55.426;37.758;2024-03-08T18:22:31;99063.78;;;2.64;51.40
75617;BME280;64200;55.426;37.758;2024-03-08T18:27:33;99057.38;;;2.51;52.45
75617;BME280;64200;55.426;37.758;2024-03-08T18:32:33;99056.66;;;2.47;52.25
75617;BME280;64200;55.426;37.758;2024-03-08T18:37:34;99056.56;;;2.34;53.01
75617;BME280;64200;55.426;37.758;2024-03-08T18:42:35;99061.69;;;2.32;52.37
75617;BME280;64200;55.426;37.758;2024-03-08T18:47:36;99067.13;;;2.36;51.84
75617;BME280;64200;55.426;37.758;2024-03-08T18:52:37;99058.50;;;2.34;52.17
75617;BME280;64200;55.426;37.758;2024-03-08T18:57:38;99061.16;;;2.21;52.22
75617;BME280;64200;55.426;37.758;2024-03-08T19:02:42;99064.50;;;2.08;52.86
75617;BME280;64200;55.426;37.758;2024-03-08T19:07:44;99073.91;;;2.11;53.30
75617;BME280;64200;55.426;37.758;2024-03-08T19:12:49;99069.41;;;2.21;52.81
75617;BME280;64200;55.426;37.758;2024-03-08T19:17:53;99066.09;;;2.30;52.85
75617;BME280;64200;55.426;37.758;2024-03-08T19:22:55;99069.53;;;2.14;52.65
75617;BME280;64200;55.426;37.758;2024-03-08T19:28:02;99069.16;;;2.11;52.50
75617;BME280;64200;55.426;37.758;2024-03-08T19:33:05;99072.34;;;2.10;52.74
75617;BME280;64200;55.426;37.758;2024-03-08T19:38:11;99060.50;;;1.93;52.94
75617;BME280;64200;55.426;37.758;2024-03-08T19:43:12;99045.81;;;1.80;53.54
75617;BME280;64200;55.426;37.758;2024-03-08T19:48:15;99035.91;;;1.62;53.05
75617;BME280;64200;55.426;37.758;2024-03-08T19:53:20;99060.88;;;1.71;53.16
75617;BME280;64200;55.426;37.758;2024-03-08T19:58:22;99047.53;;;1.70;53.31
75617;BME280;64200;55.426;37.758;2024-03-08T20:03:23;99071.03;;;1.74;53.87
75617;BME280;64200;55.426;37.758;2024-03-08T20:08:24;99054.81;;;1.60;53.63
75617;BME280;64200;55.426;37.758;2024-03-08T20:13:28;99061.91;;;1.57;54.02
75617;BME280;64200;55.426;37.758;2024-03-08T20:18:28;99062.75;;;1.54;53.86
75617;BME280;64200;55.426;37.758;2024-03-08T20:23:29;99054.84;;;1.56;54.21
75617;BME280;64200;55.426;37.758;2024-03-08T20:28:30;99057.78;;;1.46;54.10
75617;BME280;64200;55.426;37.758;2024-03-08T20:33:32;99048.47;;;1.39;54.24
75617;BME280;64200;55.426;37.758;2024-03-08T20:38:33;99051.69;;;1.34;53.36
75617;BME280;64200;55.426;37.758;2024-03-08T20:43:37;99044.75;;;1.26;54.34
75617;BME280;64200;55.426;37.758;2024-03-08T20:48:38;99044.47;;;1.20;54.25
75617;BME280;64200;55.426;37.758;2024-03-08T20:53:40;99055.88;;;1.19;54.72
75617;BME280;64200;55.426;37.758;2024-03-08T20:58:40;99045.59;;;1.23;54.66
75617;BME280;64200;55.426;37.758;2024-03-08T21:03:41;99053.31;;;1.32;54.64
75617;BME280;64200;55.426;37.758;2024-03-08T21:08:42;99054.50;;;1.31;54.23
75617;BME280;64200;55.426;37.758;2024-03-08T21:13:42;99057.78;;;1.46;54.10
75617;BME280;64200;55.426;37.758;2024-03-08T21:18:43;99061.91;;;1.57;53.91
75617;BME280;64200;55.426;37.758;2024-03-08T21:23:43;99055.06;;;1.66;54.15
75617;BME280;64200;55.426;37.758;2024-03-08T21:28:44;99064.84;;;1.90;53.35
75617;BME280;64200;55.426;37.758;2024-03-08T21:33:44;99067.81;;;1.80;53.41
75617;BME280;64200;55.426;37.758;2024-03-08T21:38:45;99052.09;;;1.33;52.94
75617;BME280;64200;55.426;37.758;2024-03-08T21:43:45;99056.22;;;1.68;52.39
75617;BME280;64200;55.426;37.758;2024-03-08T21:48:46;99069.38;;;1.81;52.08
75617;BME280;64200;55.426;37.758;2024-03-08T21:53:47;99068.94;;;1.82;52.28
75617;BME280;64200;55.426;37.758;2024-03-08T21:58:48;99054.28;;;1.89;51.65
75617;BME280;64200;55.426;37.758;2024-03-08T22:03:48;99067.72;;;1.83;50.90
75617;BME280;64200;55.426;37.758;2024-03-08T22:08:49;99058.59;;;1.90;50.98
75617;BME280;64200;55.426;37.758;2024-03-08T22:13:50;99071.53;;;1.89;51.18
75617;BME280;64200;55.426;37.758;2024-03-08T22:18:50;99071.31;;;1.80;51.04
75617;BME280;64200;55.426;37.758;2024-03-08T22:23:53;99074.06;;;1.80;51.11
75617;BME280;64200;55.426;37.758;2024-03-08T22:28:54;99066.88;;;1.66;51.57
75617;BME280;64200;55.426;37.758;2024-03-08T22:33:55;99061.25;;;1.93;50.41
75617;BME280;64200;55.426;37.758;2024-03-08T22:38:56;99080.03;;;2.19;50.56
75617;BME280;64200;55.426;37.758;2024-03-08T22:43:58;99078.28;;;2.28;51.24
75617;BME280;64200;55.426;37.758;2024-03-08T22:48:58;99073.34;;;2.20;50.44
75617;BME280;64200;55.426;37.758;2024-03-08T22:53:59;99074.97;;;2.17;50.89
75617;BME280;64200;55.426;37.758;2024-03-08T22:59:00;99065.84;;;2.20;50.05
75617;BME280;64200;55.426;37.758;2024-03-08T23:04:02;99078.16;;;2.36;50.48
75617;BME280;64200;55.426;37.758;2024-03-08T23:09:03;99070.59;;;2.40;49.89
75617;BME280;64200;55.426;37.758;2024-03-08T23:14:04;99068.19;;;2.42;50.24
75617;BME280;64200;55.426;37.758;2024-03-08T23:19:06;99089.50;;;2.38;49.46
75617;BME280;64200;55.426;37.758;2024-03-08T23:24:07;99087.25;;;2.33;49.24
75617;BME280;64200;55.426;37.758;2024-03-08T23:29:08;99083.63;;;2.16;49.70
75617;BME280;64200;55.426;37.758;2024-03-08T23:34:08;99084.34;;;2.20;49.50
75617;BME280;64200;55.426;37.758;2024-03-08T23:39:09;99097.75;;;2.38;48.57
75617;BME280;64200;55.426;37.758;2024-03-08T23:44:12;99093.66;;;2.46;48.87
75617;BME280;64200;55.426;37.758;2024-03-08T23:49:13;99085.13;;;2.40;48.88
75617;BME280;64200;55.426;37.758;2024-03-08T23:54:17;99091.53;;;2.34;48.78
75617;BME280;64200;55.426;37.758;2024-03-08T23:59:22;99095.56;;;2.29;48.22
